Time;durP1;ratioP1;P1;durP2;ratioP2;P2;SDS_P1;SDS_P2;PMS_P1;PMS_P2;Temp;Humidity;BMP_temperature;BMP_pressure;BME280_temperature;BME280_humidity;BME280_pressure;Samples;Min_cycle;Max_cycle;Signal;HPM_P1;HPM_P2
2024/04/07 00:02:03;;;;;;;0.08;0.08;;;;;;;20.15;48.69;100919.75;5095792;28;20024;-86
2024/04/07 00:04:29;;;;;;;0.10;0.10;;;;;;;20.10;48.79;100924.56;5096902;28;20509;-86
2024/04/07 00:06:55;;;;;;;0.85;0.85;;;;;;;20.09;48.86;100936.25;5098227;28;20061;-86
2024/04/07 00:09:21;;;;;;;8.30;0.57;;;;;;;20.07;48.90;100940.88;5097592;28;20021;-85
2024/04/07 00:11:48;;;;;;;0.08;0.08;;;;;;;20.03;49.08;100932.13;5093292;28;20036;-85
2024/04/07 00:14:14;;;;;;;0.00;0.00;;;;;;;20.01;48.92;100936.72;5103594;28;20015;-87
2024/04/07 00:16:42;;;;;;;0.10;0.10;;;;;;;19.88;49.67;100950.88;5097768;28;20103;-84
2024/04/07 00:19:09;;;;;;;0.10;0.10;;;;;;;19.88;49.92;100958.09;5098531;28;20062;-85
2024/04/07 00:21:35;;;;;;;0.10;0.10;;;;;;;19.68;50.44;100970.78;5094480;28;20035;-86
2024/04/07 00:24:02;;;;;;;0.10;0.10;;;;;;;19.75;50.11;100981.22;5099948;28;20021;-85
2024/04/07 00:26:28;;;;;;;0.38;0.38;;;;;;;19.72;50.20;100969.66;5096018;28;20115;-86
2024/04/07 00:28:54;;;;;;;0.30;0.30;;;;;;;19.75;50.07;100979.41;5117474;28;20040;-85
2024/04/07 00:31:21;;;;;;;0.73;0.73;;;;;;;19.75;49.90;100991.97;5115856;28;20385;-84
2024/04/07 00:33:47;;;;;;;0.08;0.08;;;;;;;19.88;49.88;100998.41;5100228;28;20028;-85
2024/04/07 00:36:13;;;;;;;0.10;0.10;;;;;;;19.86;50.00;101005.69;5097205;28;20028;-86
2024/04/07 00:38:39;;;;;;;0.10;0.10;;;;;;;19.93;50.20;100999.03;5087368;28;20063;-85
2024/04/07 00:41:06;;;;;;;0.10;0.10;;;;;;;19.89;50.68;101000.16;5097769;28;20079;-85
2024/04/07 00:43:33;;;;;;;0.30;0.30;;;;;;;19.78;51.04;101016.00;5098869;28;20024;-85
2024/04/07 00:45:59;;;;;;;1.48;0.52;;;;;;;19.70;51.22;101033.41;5090654;28;19923;-85
2024/04/07 00:48:26;;;;;;;0.08;0.08;;;;;;;19.55;51.80;101083.50;5093029;28;20514;-86
2024/04/07 00:50:55;;;;;;;0.10;0.10;;;;;;;19.61;52.14;101065.31;5096681;28;20083;-85
2024/04/07 00:53:21;;;;;;;0.10;0.10;;;;;;;19.48;53.18;101087.47;5092635;28;20122;-85
2024/04/07 00:55:48;;;;;;;0.20;0.20;;;;;;;19.39;53.83;101083.44;5094240;28;20058;-85
2024/04/07 00:58:16;;;;;;;0.10;0.10;;;;;;;19.28;55.09;101103.75;5094688;28;20387;-84
2024/04/07 01:00:43;;;;;;;0.10;0.10;;;;;;;19.04;56.00;101078.13;5095609;28;20054;-85
2024/04/07 01:03:11;;;;;;;0.10;0.10;;;;;;;19.05;55.60;101066.44;5092483;28;20028;-85
2024/04/07 01:08:19;;;;;;;0.90;0.90;;;;;;;18.78;56.60;101070.50;5114793;27;20926;-80
2024/04/07 01:10:51;;;;;;;0.00;0.00;;;;;;;18.69;56.82;101070.03;5099456;28;20074;-81
2024/04/07 01:13:24;;;;;;;0.10;0.10;;;;;;;18.53;57.19;101061.88;5108142;28;20042;-79
2024/04/07 01:15:50;;;;;;;0.52;0.52;;;;;;;18.50;56.98;101066.53;5098690;27;20050;-82
2024/04/07 01:18:16;;;;;;;0.10;0.10;;;;;;;18.49;56.98;101070.16;5107662;28;20114;-81
2024/04/07 01:20:45;;;;;;;0.10;0.10;;;;;;;18.38;57.56;101068.00;5106094;28;20058;-82
2024/04/07 01:23:16;;;;;;;0.45;0.45;;;;;;;18.42;57.15;101064.22;5098718;28;20035;-79
2024/04/07 01:25:42;;;;;;;0.15;0.15;;;;;;;18.33;57.38;101062.88;5105144;28;20035;-83
2024/04/07 01:28:09;;;;;;;0.10;0.10;;;;;;;18.31;57.35;101056.72;5097202;28;20036;-82
2024/04/07 01:30:35;;;;;;;0.10;0.10;;;;;;;18.35;56.95;101073.53;5096699;28;20051;-83
2024/04/07 01:33:02;;;;;;;0.08;0.08;;;;;;;18.28;57.25;101064.91;5098994;28;20021;-83
2024/04/07 01:35:28;;;;;;;0.00;0.00;;;;;;;18.34;56.93;101066.41;5100694;28;20055;-83
2024/04/07 01:37:54;;;;;;;0.10;0.10;;;;;;;18.37;57.01;101068.97;5106894;28;20036;-80
2024/04/07 01:40:21;;;;;;;0.10;0.10;;;;;;;18.29;57.20;101061.25;5097127;28;20136;-79
2024/04/07 01:42:47;;;;;;;0.10;0.10;;;;;;;18.17;57.52;101096.72;5102663;28;20040;-79
2024/04/07 01:45:14;;;;;;;0.00;0.00;;;;;;;18.10;57.62;101080.91;5104584;28;20039;-82
2024/04/07 01:47:41;;;;;;;0.10;0.10;;;;;;;18.09;57.76;101110.50;5097507;28;20404;-80
2024/04/07 01:50:07;;;;;;;0.10;0.10;;;;;;;18.15;57.53;101120.94;5100281;28;20032;-82
2024/04/07 01:52:34;;;;;;;0.28;0.28;;;;;;;18.02;58.65;101122.44;5099606;28;20024;-82
2024/04/07 01:55:00;;;;;;;0.10;0.10;;;;;;;17.93;59.63;101116.56;5105955;28;20595;-80
2024/04/07 01:57:26;;;;;;;2.88;0.28;;;;;;;17.75;60.65;101161.16;5094282;28;20057;-81
2024/04/07 01:59:53;;;;;;;0.30;0.30;;;;;;;17.72;61.76;101139.84;5086940;28;20037;-80
2024/04/07 02:02:19;;;;;;;0.10;0.10;;;;;;;17.64;61.60;101131.28;5101916;28;20399;-81
2024/04/07 02:04:47;;;;;;;0.63;0.63;;;;;;;17.47;62.26;101140.09;5095081;28;20060;-82
2024/04/07 02:07:13;;;;;;;0.10;0.10;;;;;;;17.31;64.03;101134.53;5105620;28;20500;-82
2024/04/07 02:09:40;;;;;;;0.10;0.10;;;;;;;17.18;64.83;101133.31;5094683;28;20032;-80
2024/04/07 02:12:07;;;;;;;0.10;0.10;;;;;;;16.96;66.35;101112.84;5096473;28;20029;-79
2024/04/07 02:14:33;;;;;;;0.13;0.13;;;;;;;16.79;67.00;101111.69;5089888;28;20029;-81
2024/04/07 02:16:59;;;;;;;0.10;0.10;;;;;;;16.81;66.93;101103.63;5104400;28;20051;-81
2024/04/07 02:19:25;;;;;;;0.10;0.10;;;;;;;16.78;67.25;101114.44;5086736;28;20025;-81
2024/04/07 02:21:52;;;;;;;0.10;0.10;;;;;;;16.76;66.60;101101.13;5089008;28;20047;-80
2024/04/07 02:24:18;;;;;;;0.08;0.08;;;;;;;16.64;67.91;101104.31;5082298;28;20419;-81
2024/04/07 02:26:46;;;;;;;0.10;0.10;;;;;;;16.55;68.34;101075.25;5083409;28;20036;-82
2024/04/07 02:29:14;;;;;;;0.10;0.10;;;;;;;16.59;68.47;101063.50;5083706;28;20028;-80
2024/04/07 02:31:40;;;;;;;0.10;0.10;;;;;;;16.54;68.74;101057.47;5089226;28;20077;-82
2024/04/07 02:34:08;;;;;;;4.18;1.27;;;;;;;16.40;69.11;101045.53;5082035;28;20373;-82
2024/04/07 02:36:34;;;;;;;0.10;0.10;;;;;;;16.37;68.80;101056.34;5086716;28;20510;-81
2024/04/07 02:39:00;;;;;;;0.10;0.10;;;;;;;16.39;68.43;101057.16;5078888;28;20047;-82
2024/04/07 02:41:27;;;;;;;0.75;0.75;;;;;;;16.33;68.42;101044.91;5088016;28;20495;-82
2024/04/07 02:43:53;;;;;;;1.58;1.48;;;;;;;16.36;68.29;101022.53;5087861;28;20119;-81
2024/04/07 02:49:05;;;;;;;0.10;0.10;;;;;;;16.33;68.27;101017.31;5087949;28;20073;-81
2024/04/07 02:51:31;;;;;;;0.10;0.10;;;;;;;16.27;68.18;101020.25;5099720;28;20025;-78
2024/04/07 02:53:58;;;;;;;0.05;0.05;;;;;;;16.33;68.16;101009.28;5098833;28;20061;-83
2024/04/07 02:56:24;;;;;;;0.10;0.10;;;;;;;16.32;68.00;101002.19;5091047;28;20016;-82
2024/04/07 02:58:50;;;;;;;0.10;0.10;;;;;;;16.37;67.47;101026.09;5087019;28;20496;-82
2024/04/07 03:01:16;;;;;;;0.10;0.10;;;;;;;16.28;67.25;101064.75;5083126;28;20040;-82
2024/04/07 03:03:45;;;;;;;0.15;0.15;;;;;;;16.32;67.29;101077.06;5082443;28;20036;-82
2024/04/07 03:06:12;;;;;;;0.10;0.10;;;;;;;16.35;66.63;101055.56;5088164;28;20042;-81
2024/04/07 03:08:39;;;;;;;0.10;0.10;;;;;;;16.28;66.60;101054.91;5087937;28;20032;-82
2024/04/07 03:11:07;;;;;;;0.10;0.10;;;;;;;16.32;66.72;101069.94;5079528;28;20115;-83
2024/04/07 03:13:34;;;;;;;0.10;0.10;;;;;;;16.40;66.27;101077.63;5084007;28;20509;-83
2024/04/07 03:16:01;;;;;;;0.10;0.10;;;;;;;16.33;66.14;101058.28;5084784;28;20487;-82
2024/04/07 03:18:27;;;;;;;0.10;0.10;;;;;;;16.38;65.94;101058.09;5084213;28;20108;-79
2024/04/07 03:20:54;;;;;;;0.10;0.10;;;;;;;16.37;65.77;101024.25;5097903;28;20032;-81
2024/04/07 03:23:20;;;;;;;0.10;0.10;;;;;;;16.33;65.33;101050.25;5085884;28;20032;-81
2024/04/07 03:25:46;;;;;;;0.10;0.10;;;;;;;16.43;65.29;101093.53;5085773;28;20052;-81
2024/04/07 03:28:12;;;;;;;0.00;0.00;;;;;;;16.45;65.35;101112.22;5089770;28;20036;-80
2024/04/07 03:30:39;;;;;;;0.10;0.10;;;;;;;16.46;65.02;101097.88;5077120;28;20400;-81
2024/04/07 03:33:05;;;;;;;0.00;0.00;;;;;;;16.46;64.18;101108.59;5084116;28;20047;-81
2024/04/07 03:35:32;;;;;;;0.10;0.10;;;;;;;16.47;64.37;101121.94;5085573;28;20039;-81
2024/04/07 03:37:58;;;;;;;0.10;0.10;;;;;;;16.44;64.06;101111.34;5089980;28;20039;-80
2024/04/07 03:40:25;;;;;;;0.08;0.08;;;;;;;16.47;63.89;101078.25;5077213;28;20036;-79
2024/04/07 03:42:51;;;;;;;0.10;0.10;;;;;;;16.52;63.67;101081.59;5082974;28;20097;-80
2024/04/07 03:45:18;;;;;;;0.10;0.10;;;;;;;16.54;63.46;101086.91;5086997;28;20035;-79
2024/04/07 03:47:44;;;;;;;0.00;0.00;;;;;;;16.49;62.80;101090.63;5087827;28;20028;-80
2024/04/07 03:50:11;;;;;;;0.10;0.10;;;;;;;16.49;62.41;101093.28;5086349;28;20467;-81
2024/04/07 03:52:37;;;;;;;0.00;0.00;;;;;;;16.56;62.50;101095.72;5087761;28;20036;-81
2024/04/07 03:55:04;;;;;;;0.00;0.00;;;;;;;16.56;61.76;101098.38;5090300;28;20133;-81
2024/04/07 03:57:31;;;;;;;0.10;0.10;;;;;;;16.58;61.83;101093.84;5090720;28;20062;-81
2024/04/07 03:59:57;;;;;;;0.10;0.10;;;;;;;16.55;60.66;101092.19;5090172;28;20092;-82
2024/04/07 04:02:25;;;;;;;0.10;0.10;;;;;;;16.64;60.27;101090.94;5086881;28;20119;-83
2024/04/07 04:04:57;;;;;;;0.03;0.03;;;;;;;16.61;60.07;101096.41;5096336;28;20093;-83
2024/04/07 04:07:28;;;;;;;0.10;0.10;;;;;;;16.69;60.24;101105.00;5098326;28;20496;-81
2024/04/07 04:09:55;;;;;;;0.08;0.08;;;;;;;16.71;59.49;101110.25;5083944;28;20412;-81
2024/04/07 04:12:22;;;;;;;0.20;0.20;;;;;;;16.71;59.43;101118.28;5082569;28;20024;-81
2024/04/07 04:14:50;;;;;;;0.00;0.00;;;;;;;16.79;59.58;101116.19;5085994;28;20480;-80
2024/04/07 04:17:16;;;;;;;0.20;0.20;;;;;;;16.74;59.48;101123.53;5083469;28;20036;-82
2024/04/07 04:19:43;;;;;;;0.10;0.10;;;;;;;16.74;59.72;101124.38;5085561;28;20084;-81
2024/04/07 04:22:09;;;;;;;0.20;0.20;;;;;;;16.73;59.35;101137.84;5086418;28;20044;-81
2024/04/07 04:24:36;;;;;;;0.00;0.00;;;;;;;16.68;59.52;101137.16;5088601;28;20032;-82
2024/04/07 04:27:03;;;;;;;0.10;0.10;;;;;;;16.70;59.13;101133.47;5086741;28;20400;-82
2024/04/07 04:29:31;;;;;;;0.10;0.10;;;;;;;16.64;59.66;101144.44;5089056;28;20037;-81
2024/04/07 04:31:57;;;;;;;0.00;0.00;;;;;;;16.63;59.12;101153.38;5079838;28;20137;-81
2024/04/07 04:34:24;;;;;;;0.10;0.10;;;;;;;16.59;59.08;101146.44;5083525;28;20035;-82
2024/04/07 04:36:52;;;;;;;0.03;0.03;;;;;;;16.49;59.38;101154.81;5085476;28;20032;-82
2024/04/07 04:39:19;;;;;;;0.08;0.08;;;;;;;16.61;59.14;101152.56;5086717;28;20024;-82
2024/04/07 04:41:46;;;;;;;0.10;0.10;;;;;;;16.57;59.38;101164.34;5083328;28;20028;-81
2024/04/07 04:44:15;;;;;;;0.10;0.10;;;;;;;16.50;58.96;101158.38;5086761;28;20769;-83
2024/04/07 04:46:42;;;;;;;0.00;0.00;;;;;;;16.62;59.18;101170.38;5088610;28;20027;-81
2024/04/07 04:49:09;;;;;;;0.10;0.10;;;;;;;16.58;59.25;101161.59;5089842;28;20422;-80
2024/04/07 04:51:35;;;;;;;0.00;0.00;;;;;;;16.57;59.32;101169.69;5089224;28;20402;-81
2024/04/07 04:54:02;;;;;;;0.10;0.10;;;;;;;16.48;59.31;101176.28;5094223;28;20154;-82
2024/04/07 04:56:28;;;;;;;0.10;0.10;;;;;;;16.62;59.14;101183.75;5085272;28;20036;-82
2024/04/07 04:58:57;;;;;;;0.00;0.00;;;;;;;16.54;59.34;101192.09;5076505;28;20025;-82
2024/04/07 05:01:24;;;;;;;0.10;0.10;;;;;;;16.50;59.52;101195.81;5085055;28;20032;-81
2024/04/07 05:03:51;;;;;;;0.00;0.00;;;;;;;16.57;59.33;101202.66;5075907;28;20052;-81
2024/04/07 05:06:19;;;;;;;0.40;0.40;;;;;;;16.60;59.31;101196.34;5083593;28;20156;-80
2024/04/07 05:08:45;;;;;;;0.10;0.10;;;;;;;16.57;59.69;101201.78;5098796;28;20451;-78
2024/04/07 05:11:12;;;;;;;0.00;0.00;;;;;;;16.45;60.06;101212.03;5087769;28;20122;-82
2024/04/07 05:13:38;;;;;;;0.15;0.15;;;;;;;16.36;59.92;101209.69;5082904;28;20043;-78
2024/04/07 05:16:05;;;;;;;0.10;0.10;;;;;;;16.39;60.43;101217.63;5085285;28;20025;-81
2024/04/07 05:18:32;;;;;;;0.10;0.10;;;;;;;16.42;59.87;101220.16;5075468;28;20043;-81
2024/04/07 05:21:07;;;;;;;0.10;0.10;;;;;;;16.47;60.16;101217.31;5074655;28;20039;-80
2024/04/07 05:23:36;;;;;;;0.10;0.10;;;;;;;16.47;60.32;101217.31;5076848;28;20030;-80
2024/04/07 05:28:46;;;;;;;0.10;0.10;;;;;;;16.50;60.13;101217.22;5111660;27;20818;-81
2024/04/07 05:31:13;;;;;;;0.00;0.00;;;;;;;16.57;60.30;101228.53;5089528;28;20059;-80
2024/04/07 05:33:40;;;;;;;0.10;0.10;;;;;;;16.61;60.14;101239.06;5078809;28;20039;-78
2024/04/07 05:36:07;;;;;;;0.20;0.20;;;;;;;16.59;60.47;101237.38;5091920;28;20023;-79
2024/04/07 05:38:35;;;;;;;0.00;0.00;;;;;;;16.61;60.31;101246.19;5083114;28;20024;-80
2024/04/07 05:41:02;;;;;;;0.10;0.10;;;;;;;16.63;60.29;101247.03;5092815;28;20036;-77
2024/04/07 05:43:29;;;;;;;0.10;0.10;;;;;;;16.62;60.44;101243.50;5086663;28;20232;-80
2024/04/07 05:45:56;;;;;;;0.00;0.00;;;;;;;16.67;60.26;101245.97;5075884;28;20040;-81
2024/04/07 05:48:23;;;;;;;0.10;0.10;;;;;;;16.63;60.66;101245.22;5078756;28;20028;-81
2024/04/07 05:50:49;;;;;;;0.08;0.08;;;;;;;16.68;60.79;101241.50;5090046;28;20107;-81
2024/04/07 05:53:15;;;;;;;0.10;0.10;;;;;;;16.63;60.44;101244.34;5088220;28;20040;-82
2024/04/07 05:55:42;;;;;;;0.00;0.00;;;;;;;16.66;60.66;101254.94;5086281;28;20031;-82
2024/04/07 05:58:08;;;;;;;0.00;0.00;;;;;;;16.62;60.62;101256.88;5090630;28;20111;-80
2024/04/07 06:00:35;;;;;;;0.30;0.30;;;;;;;16.57;60.84;101252.59;5091705;28;20423;-83
2024/04/07 06:03:03;;;;;;;0.10;0.10;;;;;;;16.59;60.70;101256.97;5089121;28;20029;-81
2024/04/07 06:05:32;;;;;;;0.65;0.65;;;;;;;16.54;61.09;101255.41;5087849;28;20518;-81
2024/04/07 06:07:59;;;;;;;0.10;0.10;;;;;;;16.42;61.55;101267.44;5091997;28;20024;-81
2024/04/07 06:10:25;;;;;;;0.00;0.00;;;;;;;16.53;61.17;101270.56;5082469;28;20035;-81
2024/04/07 06:12:51;;;;;;;0.10;0.10;;;;;;;16.55;61.28;101278.53;5084980;28;20078;-80
2024/04/07 06:15:18;;;;;;;0.00;0.00;;;;;;;16.61;61.64;101278.31;5079102;28;20369;-79
2024/04/07 06:17:48;;;;;;;0.10;0.10;;;;;;;16.68;61.35;101274.47;5089838;28;20059;-79
2024/04/07 06:20:15;;;;;;;0.10;0.10;;;;;;;16.73;61.38;101277.81;5087230;28;20491;-76
2024/04/07 06:22:41;;;;;;;0.00;0.00;;;;;;;16.80;61.14;101273.13;5084269;28;20116;-79
2024/04/07 06:25:08;;;;;;;0.10;0.10;;;;;;;16.89;61.30;101277.25;5080042;28;20025;-79
2024/04/07 06:27:35;;;;;;;0.00;0.00;;;;;;;16.77;61.15;101281.25;5080483;28;20037;-81
2024/04/07 06:30:03;;;;;;;0.40;0.40;;;;;;;16.84;61.14;101279.25;5085721;28;20122;-80
2024/04/07 06:32:33;;;;;;;0.10;0.10;;;;;;;16.89;61.07;101277.25;5084898;28;20062;-80
2024/04/07 06:34:59;;;;;;;0.00;0.00;;;;;;;16.97;60.86;101280.50;5079766;28;20487;-79
2024/04/07 06:37:26;;;;;;;0.00;0.00;;;;;;;16.86;61.01;101280.91;5080695;28;20028;-80
2024/04/07 06:39:52;;;;;;;0.03;0.03;;;;;;;16.90;61.21;101287.88;5065049;28;20033;-80
2024/04/07 06:42:33;;;;;;;0.00;0.00;;;;;;;16.89;61.30;101293.31;5075255;28;20063;-79
2024/04/07 06:45:00;;;;;;;0.10;0.10;;;;;;;16.81;61.20;101291.78;5065687;28;20048;-78
2024/04/07 06:47:27;;;;;;;0.20;0.20;;;;;;;16.89;61.18;101295.97;5068376;28;20025;-80
2024/04/07 06:49:58;;;;;;;1.10;0.98;;;;;;;16.98;61.26;101298.31;5078294;28;20044;-81
2024/04/07 06:52:25;;;;;;;0.20;0.20;;;;;;;16.97;61.27;101308.16;5073473;28;20024;-81
2024/04/07 06:54:51;;;;;;;0.10;0.10;;;;;;;16.96;61.65;101308.22;5076342;28;20028;-80
2024/04/07 06:57:20;;;;;;;0.00;0.00;;;;;;;17.09;61.23;101308.59;5071710;28;20075;-80
2024/04/07 06:59:46;;;;;;;0.10;0.10;;;;;;;17.07;61.28;101306.00;5069286;28;20496;-80
2024/04/07 07:02:12;;;;;;;0.00;0.00;;;;;;;17.07;61.30;101316.72;5065209;28;20171;-80
2024/04/07 07:04:38;;;;;;;0.00;0.00;;;;;;;17.19;61.04;101322.50;5072841;28;20043;-79
2024/04/07 07:07:04;;;;;;;0.00;0.00;;;;;;;17.20;60.87;101316.22;5072057;28;20431;-80
2024/04/07 07:09:31;;;;;;;0.10;0.10;;;;;;;17.21;60.63;101318.81;5071450;28;20036;-81
2024/04/07 07:11:57;;;;;;;0.00;0.00;;;;;;;17.25;60.99;101332.97;5075428;28;20051;-81
2024/04/07 07:14:23;;;;;;;0.10;0.10;;;;;;;17.30;61.06;101331.81;5071758;28;20032;-79
2024/04/07 07:16:49;;;;;;;0.10;0.10;;;;;;;17.33;60.93;101336.19;5070233;28;20030;-80
2024/04/07 07:19:16;;;;;;;0.10;0.10;;;;;;;17.53;60.57;101326.47;5071599;28;20033;-81
2024/04/07 07:21:43;;;;;;;0.10;0.10;;;;;;;17.70;60.38;101329.31;5070130;28;20091;-81
2024/04/07 07:24:09;;;;;;;0.00;0.00;;;;;;;17.66;60.11;101343.78;5069960;28;20020;-80
2024/04/07 07:26:35;;;;;;;0.10;0.10;;;;;;;17.71;59.68;101338.25;5087538;28;20515;-80
2024/04/07 07:29:03;;;;;;;0.10;0.10;;;;;;;17.68;59.61;101335.69;5079004;28;20045;-80
2024/04/07 07:31:30;;;;;;;0.10;0.10;;;;;;;17.69;59.49;101345.47;5067003;28;20025;-80
2024/04/07 07:33:56;;;;;;;0.05;0.05;;;;;;;17.73;59.37;101350.63;5073957;28;20448;-79
2024/04/07 07:36:22;;;;;;;0.10;0.10;;;;;;;17.79;59.06;101355.75;5073823;28;20024;-80
2024/04/07 07:38:48;;;;;;;0.00;0.00;;;;;;;17.74;59.47;101363.06;5074442;28;20029;-80
2024/04/07 07:41:18;;;;;;;0.00;0.00;;;;;;;17.92;58.98;101360.59;5077805;28;20103;-80
2024/04/07 07:43:45;;;;;;;0.00;0.00;;;;;;;17.96;59.21;101367.59;5071594;28;20060;-80
2024/04/07 07:46:11;;;;;;;0.10;0.10;;;;;;;17.82;58.00;101359.22;5074722;28;20043;-79
2024/04/07 07:48:39;;;;;;;0.10;0.10;;;;;;;17.86;57.84;101372.44;5078800;28;20078;-82
2024/04/07 07:51:10;;;;;;;0.10;0.10;;;;;;;17.71;57.76;101379.31;5075694;28;20033;-79
2024/04/07 07:53:37;;;;;;;0.10;0.10;;;;;;;17.86;57.84;101361.72;5061743;28;20033;-80
2024/04/07 07:56:05;;;;;;;0.10;0.10;;;;;;;17.77;57.82;101365.66;5068847;28;20024;-81
2024/04/07 07:58:32;;;;;;;0.10;0.10;;;;;;;17.91;57.69;101391.88;5071236;28;20081;-81
2024/04/07 08:00:59;;;;;;;0.00;0.00;;;;;;;17.90;57.66;101379.38;5070977;28;20120;-82
2024/04/07 08:03:25;;;;;;;0.05;0.05;;;;;;;18.04;57.38;101381.50;5069794;28;20104;-82
2024/04/07 08:05:51;;;;;;;0.30;0.30;;;;;;;18.10;57.68;101386.63;5070396;28;20090;-82
2024/04/07 08:08:19;;;;;;;0.10;0.10;;;;;;;18.20;57.61;101381.72;5072029;28;20033;-80
2024/04/07 08:10:46;;;;;;;0.10;0.10;;;;;;;18.21;56.25;101374.56;5078872;28;20578;-82
2024/04/07 08:13:13;;;;;;;0.00;0.00;;;;;;;18.17;56.32;101386.34;5072413;28;20103;-77
2024/04/07 08:15:41;;;;;;;0.20;0.20;;;;;;;18.14;53.28;101383.81;5070072;28;20396;-81
2024/04/07 08:18:07;;;;;;;0.00;0.00;;;;;;;18.05;51.37;101387.75;5070474;28;20016;-79
2024/04/07 08:20:36;;;;;;;0.08;0.08;;;;;;;18.22;52.27;101400.47;5068887;28;20050;-82
2024/04/07 08:23:02;;;;;;;0.00;0.00;;;;;;;18.25;52.52;101394.94;5074815;28;20084;-83
2024/04/07 08:25:28;;;;;;;0.20;0.20;;;;;;;18.34;52.83;101383.81;5077125;28;20637;-81
2024/04/07 08:27:54;;;;;;;0.10;0.10;;;;;;;18.38;53.19;101385.44;5076339;28;20028;-82
2024/04/07 08:30:21;;;;;;;0.00;0.00;;;;;;;18.41;53.24;101384.41;5085187;28;20051;-81
2024/04/07 08:32:47;;;;;;;0.10;0.10;;;;;;;18.29;53.26;101391.19;5081747;28;20037;-79
2024/04/07 08:35:13;;;;;;;0.10;0.10;;;;;;;18.38;53.88;101396.16;5085590;28;20040;-80
2024/04/07 08:37:40;;;;;;;0.08;0.08;;;;;;;18.37;54.48;101394.41;5078528;28;20147;-82
2024/04/07 08:40:07;;;;;;;0.10;0.10;;;;;;;18.35;54.62;101395.41;5065604;28;20028;-83
2024/04/07 08:42:34;;;;;;;0.35;0.35;;;;;;;18.53;54.93;101399.09;5077416;28;20032;-80
2024/04/07 08:45:02;;;;;;;0.50;0.50;;;;;;;18.68;55.13;101406.47;5078980;28;20021;-82
2024/04/07 08:47:29;;;;;;;0.00;0.00;;;;;;;18.78;54.99;101398.88;5080078;28;20032;-82
2024/04/07 08:49:57;;;;;;;0.10;0.10;;;;;;;18.85;55.10;101405.69;5068405;28;20036;-82
2024/04/07 08:52:24;;;;;;;0.10;0.10;;;;;;;19.00;55.05;101404.13;5079398;28;20036;-81
2024/04/07 08:54:50;;;;;;;0.70;0.70;;;;;;;19.13;55.06;101403.56;5079643;28;20036;-83
2024/04/07 08:57:17;;;;;;;0.10;0.10;;;;;;;19.18;53.88;101406.94;5083870;28;20048;-81
2024/04/07 08:59:48;;;;;;;0.10;0.10;;;;;;;19.24;53.69;101394.06;5074802;28;20027;-83
2024/04/07 09:02:15;;;;;;;0.03;0.03;;;;;;;19.37;52.69;101407.75;5076565;28;20024;-83
2024/04/07 09:04:42;;;;;;;0.00;0.00;;;;;;;19.29;51.73;101415.34;5077325;28;20036;-82
2024/04/07 09:07:10;;;;;;;0.30;0.30;;;;;;;19.43;51.46;101416.47;5078911;28;20088;-82
2024/04/07 09:09:37;;;;;;;0.00;0.00;;;;;;;19.50;50.62;101418.81;5080283;28;20036;-82
2024/04/07 09:12:04;;;;;;;0.10;0.10;;;;;;;19.42;49.82;101425.50;5076063;28;20036;-84
2024/04/07 09:14:33;;;;;;;0.10;0.10;;;;;;;19.59;49.62;101406.75;5078773;28;20025;-79
2024/04/07 09:17:08;;;;;;;3.55;0.90;;;;;;;19.56;48.90;101417.63;5073087;28;20020;-83
2024/04/07 09:19:36;;;;;;;0.00;0.00;;;;;;;19.38;46.21;101414.88;5072436;28;20025;-80
2024/04/07 09:22:03;;;;;;;0.10;0.10;;;;;;;19.46;46.01;101411.81;5070957;28;20033;-81
2024/04/07 09:24:30;;;;;;;0.10;0.10;;;;;;;19.56;46.88;101412.25;5067908;28;20107;-81
2024/04/07 09:26:59;;;;;;;0.00;0.00;;;;;;;19.76;47.38;101408.56;5075218;28;20055;-81
2024/04/07 09:29:28;;;;;;;0.10;0.10;;;;;;;19.46;46.98;101402.91;5076908;28;20043;-81
2024/04/07 09:31:55;;;;;;;0.10;0.10;;;;;;;19.64;47.42;101407.38;5076691;28;20032;-82
2024/04/07 09:34:21;;;;;;;0.05;0.05;;;;;;;19.83;47.95;101420.81;5075612;28;20020;-81
2024/04/07 09:36:48;;;;;;;0.10;0.10;;;;;;;19.77;46.92;101426.47;5072818;28;20021;-80
2024/04/07 09:39:14;;;;;;;0.10;0.10;;;;;;;20.00;46.14;101421.78;5075543;28;20062;-81
2024/04/07 09:41:43;;;;;;;0.28;0.28;;;;;;;20.16;47.00;101422.75;5077263;28;20021;-80
2024/04/07 09:44:10;;;;;;;2.55;1.10;;;;;;;20.19;46.63;101427.09;5090134;28;20089;-81
2024/04/07 09:46:38;;;;;;;0.10;0.10;;;;;;;20.27;45.77;101418.63;5071629;28;20037;-82
2024/04/07 09:49:08;;;;;;;0.00;0.00;;;;;;;20.27;45.68;101421.31;5071930;28;20049;-81
2024/04/07 09:51:41;;;;;;;0.00;0.00;;;;;;;20.31;46.99;101436.34;5077636;28;20028;-80
2024/04/07 09:54:19;;;;;;;0.00;0.00;;;;;;;20.31;46.54;101420.22;5077181;28;20136;-82
2024/04/07 09:56:46;;;;;;;0.08;0.08;;;;;;;20.36;46.43;101418.16;5082582;28;20016;-82
2024/04/07 09:59:13;;;;;;;0.35;0.35;;;;;;;20.32;42.34;101422.81;5083076;28;20074;-81
2024/04/07 10:01:40;;;;;;;0.00;0.00;;;;;;;20.45;43.08;101427.56;5078264;28;20105;-80
2024/04/07 10:04:07;;;;;;;0.10;0.10;;;;;;;20.48;43.07;101435.47;5083560;28;20029;-81
2024/04/07 10:06:34;;;;;;;1.55;0.88;;;;;;;20.55;39.85;101423.44;5079081;28;20056;-79
2024/04/07 10:09:03;;;;;;;0.10;0.10;;;;;;;20.53;40.27;101439.66;5068991;28;20033;-81
2024/04/07 10:11:29;;;;;;;0.08;0.08;;;;;;;20.77;40.23;101433.09;5078237;28;20020;-81
2024/04/07 10:13:55;;;;;;;0.03;0.03;;;;;;;20.58;38.68;101434.03;5067548;28;20428;-82
2024/04/07 10:16:24;;;;;;;0.00;0.00;;;;;;;20.71;38.59;101428.94;5078063;28;20035;-82
2024/04/07 10:18:51;;;;;;;0.30;0.30;;;;;;;20.52;37.69;101429.88;5080304;28;20032;-82
2024/04/07 10:21:17;;;;;;;0.10;0.10;;;;;;;20.49;36.70;101435.41;5081052;28;20090;-81
2024/04/07 10:23:44;;;;;;;0.00;0.00;;;;;;;20.35;37.21;101444.19;5080133;28;20111;-81
2024/04/07 10:26:10;;;;;;;0.00;0.00;;;;;;;20.62;37.37;101435.66;5080299;28;20062;-81
2024/04/07 10:28:56;;;;;;;0.00;0.00;;;;;;;20.73;37.23;101437.78;5073651;28;20110;-82
2024/04/07 10:34:01;;;;;;;0.10;0.10;;;;;;;20.83;37.87;101422.00;5099979;27;20113;-82
2024/04/07 10:36:33;;;;;;;0.10;0.10;;;;;;;20.93;38.54;101434.00;5102928;28;20033;-81
2024/04/07 10:39:00;;;;;;;;;;;;;;;20.84;37.80;101439.91;5102906;28;20039;-83
2024/04/07 10:44:09;;;;;;;0.10;0.10;;;;;;;20.96;39.46;101433.84;5089088;27;20379;-81
2024/04/07 10:46:35;;;;;;;0.03;0.03;;;;;;;20.82;40.11;101431.03;5094850;28;20028;-82
2024/04/07 10:49:03;;;;;;;0.10;0.10;;;;;;;21.05;40.00;101420.81;5094573;28;20056;-83
2024/04/07 10:51:29;;;;;;;0.10;0.10;;;;;;;20.97;39.74;101434.72;5093966;28;20047;-80
2024/04/07 10:53:59;;;;;;;0.05;0.05;;;;;;;21.15;40.07;101427.47;5093619;28;20028;-83
2024/04/07 10:56:26;;;;;;;0.10;0.10;;;;;;;20.98;38.81;101421.16;5091527;28;20059;-81
2024/04/07 10:58:52;;;;;;;0.10;0.10;;;;;;;21.13;39.99;101421.28;5090616;28;20029;-82
2024/04/07 11:01:19;;;;;;;0.20;0.20;;;;;;;21.15;40.06;101428.31;5087181;28;20036;-82
2024/04/07 11:03:46;;;;;;;0.10;0.10;;;;;;;21.16;38.49;101410.34;5090044;28;20103;-80
2024/04/07 11:06:13;;;;;;;0.10;0.10;;;;;;;21.23;38.87;101418.94;5085906;28;20111;-81
2024/04/07 11:08:40;;;;;;;0.00;0.00;;;;;;;21.12;38.12;101433.00;5088648;28;20036;-82
2024/04/07 11:11:08;;;;;;;0.00;0.00;;;;;;;21.21;37.90;101424.41;5087638;28;20024;-81
2024/04/07 11:13:35;;;;;;;0.05;0.05;;;;;;;21.40;38.55;101420.69;5091203;28;20040;-82
2024/04/07 11:16:01;;;;;;;0.10;0.10;;;;;;;21.38;37.66;101422.59;5089307;28;20119;-81
2024/04/07 11:18:28;;;;;;;0.00;0.00;;;;;;;21.49;37.62;101403.97;5087462;28;20493;-82
2024/04/07 11:20:59;;;;;;;0.10;0.10;;;;;;;21.48;37.24;101421.09;5081586;28;20040;-82
2024/04/07 11:23:25;;;;;;;0.03;0.03;;;;;;;21.13;35.97;101419.47;5092713;28;20051;-82
2024/04/07 11:25:52;;;;;;;0.00;0.00;;;;;;;21.44;36.88;101422.25;5090730;28;20085;-84
2024/04/07 11:28:21;;;;;;;0.13;0.10;;;;;;;21.55;37.30;101414.41;5093000;28;20028;-83
2024/04/07 11:30:51;;;;;;;0.10;0.10;;;;;;;21.50;37.06;101424.59;5094386;28;20049;-83
2024/04/07 11:33:18;;;;;;;0.10;0.10;;;;;;;21.49;37.98;101406.69;5085389;28;20020;-82
2024/04/07 11:35:44;;;;;;;0.00;0.00;;;;;;;21.54;37.68;101418.06;5093462;28;20031;-81
2024/04/07 11:38:12;;;;;;;0.10;0.10;;;;;;;21.63;37.12;101401.41;5087147;28;20032;-83